Time;durP1;ratioP1;P1;durP2;ratioP2;P2;SDS_P1;SDS_P2;PMS_P1;PMS_P2;Temp;Humidity;BMP_temperature;BMP_pressure;BME280_temperature;BME280_humidity;BME280_pressure;Samples;Min_cycle;Max_cycle;Signal;HPM_P1;HPM_P2
2023/12/19 00:01:10;;;;;;;20.70;16.02;;;15.50;99.90;;;;;;4595550;19;20031;-80
2023/12/19 00:02:54;;;;;;;16.70;13.02;;;15.50;99.90;;;;;;4595344;19;20018;-81
2023/12/19 00:04:29;;;;;;;16.85;14.25;;;15.50;99.90;;;;;;4595652;19;20414;-81
2023/12/19 00:06:04;;;;;;;15.55;13.18;;;15.50;99.90;;;;;;4593902;19;20014;-81
2023/12/19 00:07:40;;;;;;;17.08;12.52;;;15.50;99.90;;;;;;4595288;19;19998;-81
2023/12/19 00:09:15;;;;;;;17.15;13.27;;;15.50;99.90;;;;;;4595390;19;19999;-81
2023/12/19 00:10:51;;;;;;;15.90;12.90;;;15.50;99.90;;;;;;4595293;19;20013;-80
2023/12/19 00:12:25;;;;;;;15.80;12.98;;;15.50;99.90;;;;;;4595218;19;20422;-81
2023/12/19 00:13:59;;;;;;;17.02;13.43;;;15.50;99.90;;;;;;4595133;19;19998;-80
2023/12/19 00:15:35;;;;;;;16.23;13.18;;;15.50;99.90;;;;;;4594573;19;20014;-81
2023/12/19 00:17:10;;;;;;;15.73;12.30;;;15.50;99.90;;;;;;4593703;19;20307;-81
2023/12/19 00:18:44;;;;;;;15.43;11.95;;;15.50;99.90;;;;;;4594705;19;20048;-81
2023/12/19 00:20:20;;;;;;;13.93;11.45;;;15.50;99.90;;;;;;4595338;19;20316;-81
2023/12/19 00:21:54;;;;;;;16.52;11.63;;;15.50;99.90;;;;;;4595094;19;19995;-81
2023/12/19 00:23:30;;;;;;;16.92;12.15;;;15.50;99.90;;;;;;4594991;19;20008;-81
2023/12/19 00:25:07;;;;;;;13.73;10.98;;;15.50;99.90;;;;;;4595211;19;20495;-81
2023/12/19 00:26:41;;;;;;;16.30;12.63;;;15.50;99.90;;;;;;4595199;19;20037;-80
2023/12/19 00:28:15;;;;;;;16.05;11.73;;;15.50;99.90;;;;;;4594920;19;20429;-81
2023/12/19 00:29:51;;;;;;;15.15;11.93;;;15.50;99.90;;;;;;4594929;19;20006;-81
2023/12/19 00:31:26;;;;;;;14.57;10.68;;;15.50;99.90;;;;;;4595171;19;20090;-80
2023/12/19 00:33:00;;;;;;;13.90;10.98;;;15.50;99.90;;;;;;4594836;19;20002;-81
2023/12/19 00:35:01;;;;;;;12.23;10.68;;;15.50;99.90;;;;;;4592390;19;20307;-80
2023/12/19 00:36:35;;;;;;;14.18;11.15;;;15.50;99.90;;;;;;4594669;19;20013;-80
2023/12/19 00:38:10;;;;;;;14.20;11.48;;;15.50;99.90;;;;;;4595002;19;20288;-80
2023/12/19 00:39:46;;;;;;;14.45;11.23;;;15.50;99.90;;;;;;4594745;19;20020;-80
2023/12/19 00:41:20;;;;;;;13.35;10.43;;;15.50;99.90;;;;;;4594591;19;20010;-80
2023/12/19 00:42:55;;;;;;;16.33;11.25;;;15.50;99.90;;;;;;4594637;19;20002;-80
2023/12/19 00:44:31;;;;;;;13.90;10.65;;;15.50;99.90;;;;;;4594583;19;20014;-80
2023/12/19 00:46:05;;;;;;;13.65;11.10;;;15.50;99.90;;;;;;4593449;19;20013;-80
2023/12/19 00:47:40;;;;;;;13.02;10.60;;;15.50;99.90;;;;;;4594428;19;20010;-80
2023/12/19 00:49:15;;;;;;;13.25;10.23;;;15.50;99.90;;;;;;4594781;19;20482;-81
2023/12/19 00:50:50;;;;;;;12.30;10.68;;;15.50;99.90;;;;;;4594455;19;20006;-80
2023/12/19 00:52:27;;;;;;;14.50;11.32;;;15.50;99.90;;;;;;4592375;19;20002;-80
2023/12/19 00:54:04;;;;;;;12.90;10.25;;;15.50;99.90;;;;;;4593191;19;20007;-80
2023/12/19 00:55:38;;;;;;;13.27;10.80;;;15.50;99.90;;;;;;4593394;19;20007;-80
2023/12/19 00:57:13;;;;;;;15.02;11.32;;;15.50;99.90;;;;;;4593276;19;20070;-80
2023/12/19 00:58:50;;;;;;;15.98;11.65;;;15.50;99.90;;;;;;4593273;19;20299;-81
2023/12/19 01:11:50;;;;;;;13.10;10.35;;;15.60;99.90;;;;;;4563679;19;20021;-81
2023/12/19 01:13:26;;;;;;;12.73;9.68;;;15.50;99.90;;;;;;4593920;19;20010;-81
2023/12/19 01:15:00;;;;;;;13.38;10.65;;;15.50;99.90;;;;;;4593127;19;20339;-80
2023/12/19 01:16:34;;;;;;;13.77;9.98;;;15.50;99.90;;;;;;4593732;19;20011;-81
2023/12/19 01:18:11;;;;;;;11.63;9.48;;;15.50;99.90;;;;;;4593923;19;20349;-80
2023/12/19 01:19:45;;;;;;;13.00;10.32;;;15.50;99.90;;;;;;4594167;19;19998;-80
2023/12/19 01:21:18;;;;;;;11.93;10.23;;;15.50;99.90;;;;;;4593638;19;20007;-80
2023/12/19 01:22:53;;;;;;;14.00;10.35;;;15.50;99.90;;;;;;4594124;19;20013;-80
2023/12/19 01:24:29;;;;;;;13.52;9.77;;;15.50;99.90;;;;;;4593769;19;20334;-80
2023/12/19 01:26:03;;;;;;;12.52;10.15;;;15.50;99.90;;;;;;4592436;19;20074;-80
2023/12/19 01:27:39;;;;;;;12.98;9.82;;;15.50;99.90;;;;;;4593883;19;20418;-80
2023/12/19 01:29:13;;;;;;;14.13;10.63;;;15.50;99.90;;;;;;4593630;19;20006;-80
2023/12/19 01:30:48;;;;;;;11.57;9.90;;;15.50;99.90;;;;;;4593876;19;20039;-80
2023/12/19 01:32:23;;;;;;;15.60;11.30;;;15.50;99.90;;;;;;4592588;19;20010;-80
2023/12/19 01:33:57;;;;;;;13.07;9.35;;;15.50;99.90;;;;;;4593555;19;20002;-80
2023/12/19 01:35:31;;;;;;;12.80;9.82;;;15.50;99.90;;;;;;4592349;19;19999;-80
2023/12/19 01:37:07;;;;;;;12.18;9.88;;;15.50;99.90;;;;;;4593841;19;20304;-80
2023/12/19 01:38:41;;;;;;;12.35;9.60;;;15.50;99.90;;;;;;4593478;19;20002;-80
2023/12/19 01:40:15;;;;;;;12.10;9.15;;;15.50;99.90;;;;;;4593449;19;20004;-79
2023/12/19 01:41:51;;;;;;;13.45;9.43;;;15.50;99.90;;;;;;4592886;19;20027;-80
2023/12/19 01:43:26;;;;;;;13.25;8.48;;;15.50;99.90;;;;;;4593410;19;20036;-80
2023/12/19 01:45:19;;;;;;;14.43;10.40;;;15.50;99.90;;;;;;4593412;19;20023;-80
2023/12/19 01:46:55;;;;;;;17.30;11.45;;;15.50;99.90;;;;;;4593645;19;20430;-80
2023/12/19 01:48:30;;;;;;;13.32;10.60;;;15.50;99.90;;;;;;4593245;19;20434;-80
2023/12/19 01:50:05;;;;;;;14.07;10.00;;;15.50;99.90;;;;;;4593231;19;20002;-80
2023/12/19 01:51:41;;;;;;;12.23;9.90;;;15.50;99.90;;;;;;4591685;19;20002;-80
2023/12/19 01:53:15;;;;;;;14.02;9.80;;;15.50;99.90;;;;;;4592846;19;20003;-81
2023/12/19 01:54:49;;;;;;;13.85;10.15;;;15.50;99.90;;;;;;4592557;19;20077;-80
2023/12/19 01:56:25;;;;;;;11.35;9.48;;;15.50;99.90;;;;;;4593177;19;20014;-81
2023/12/19 01:57:59;;;;;;;14.18;9.73;;;15.50;99.90;;;;;;4593044;19;20010;-81
2023/12/19 01:59:33;;;;;;;12.88;10.73;;;15.50;99.90;;;;;;4591793;19;20002;-80
2023/12/19 02:01:10;;;;;;;12.00;10.30;;;15.50;99.90;;;;;;4592758;19;20006;-81
2023/12/19 02:02:45;;;;;;;13.00;10.23;;;15.50;99.90;;;;;;4592467;19;20002;-81
2023/12/19 02:04:19;;;;;;;17.23;12.55;;;15.50;99.90;;;;;;4590514;19;20023;-81
2023/12/19 02:05:55;;;;;;;19.55;13.48;;;15.50;99.90;;;;;;4592881;19;19999;-80
2023/12/19 02:07:29;;;;;;;19.33;12.65;;;15.50;99.90;;;;;;4591535;19;20007;-80
2023/12/19 02:09:03;;;;;;;14.52;10.98;;;15.50;99.90;;;;;;4592499;19;20058;-80
2023/12/19 02:10:39;;;;;;;18.92;12.18;;;15.50;99.90;;;;;;4591782;19;20006;-80
2023/12/19 02:12:14;;;;;;;16.35;10.95;;;15.50;99.90;;;;;;4591296;19;20339;-81
2023/12/19 02:13:49;;;;;;;15.30;10.95;;;15.50;99.90;;;;;;4592954;19;20333;-81
2023/12/19 02:15:25;;;;;;;16.17;11.45;;;15.50;99.90;;;;;;4591884;19;20007;-81
2023/12/19 02:17:01;;;;;;;13.52;9.93;;;15.50;99.90;;;;;;4592686;19;20372;-80
2023/12/19 02:18:34;;;;;;;17.13;11.65;;;15.40;99.90;;;;;;4592680;19;20002;-80
2023/12/19 02:20:11;;;;;;;14.63;10.50;;;15.40;99.90;;;;;;4592678;19;20031;-80
2023/12/19 02:21:46;;;;;;;15.68;10.60;;;15.40;99.90;;;;;;4592151;19;20002;-81
2023/12/19 02:23:19;;;;;;;14.85;11.15;;;15.40;99.90;;;;;;4592550;19;20080;-81
2023/12/19 02:24:54;;;;;;;15.90;9.75;;;15.40;99.90;;;;;;4592826;19;20003;-81
2023/12/19 02:26:28;;;;;;;13.10;8.95;;;15.40;99.90;;;;;;4591213;19;20018;-81
2023/12/19 02:28:04;;;;;;;14.07;10.38;;;15.30;99.90;;;;;;4592431;19;20002;-80
2023/12/19 02:29:39;;;;;;;12.55;9.18;;;15.40;99.90;;;;;;4592517;19;20045;-81
2023/12/19 02:31:14;;;;;;;12.18;9.95;;;15.30;99.90;;;;;;4592287;19;19999;-81
2023/12/19 02:32:48;;;;;;;17.77;10.93;;;15.30;99.90;;;;;;4592436;19;19999;-81
2023/12/19 02:34:24;;;;;;;14.45;10.55;;;15.30;99.90;;;;;;4592267;19;20089;-81
2023/12/19 02:35:59;;;;;;;14.85;10.95;;;15.30;99.90;;;;;;4592336;19;20001;-80
2023/12/19 02:37:33;;;;;;;14.02;10.70;;;15.20;99.90;;;;;;4592592;19;20093;-81
2023/12/19 02:39:10;;;;;;;19.45;12.10;;;15.20;99.90;;;;;;4592386;19;20303;-80
2023/12/19 02:40:45;;;;;;;14.07;11.00;;;15.20;99.90;;;;;;4592618;19;20023;-81
2023/12/19 02:42:19;;;;;;;15.18;10.68;;;15.20;99.90;;;;;;4591330;19;20013;-80
2023/12/19 02:43:55;;;;;;;14.90;10.90;;;15.20;99.90;;;;;;4591120;19;20006;-81
2023/12/19 02:45:31;;;;;;;12.38;10.95;;;15.20;99.90;;;;;;4591747;19;20007;-81
2023/12/19 02:47:05;;;;;;;13.27;10.32;;;15.20;99.90;;;;;;4592110;19;20010;-81
2023/12/19 02:48:41;;;;;;;13.95;10.88;;;15.20;99.90;;;;;;4592491;19;20307;-81
2023/12/19 02:50:15;;;;;;;13.52;10.18;;;15.20;99.90;;;;;;4592100;19;20430;-81
2023/12/19 02:51:50;;;;;;;14.20;10.45;;;15.10;99.90;;;;;;4591541;19;20007;-81
2023/12/19 02:53:27;;;;;;;12.35;9.77;;;15.20;99.90;;;;;;4592411;19;20006;-81
2023/12/19 02:55:02;;;;;;;13.02;10.50;;;15.10;99.90;;;;;;4591550;19;20007;-80
2023/12/19 02:56:37;;;;;;;13.55;10.57;;;15.10;99.90;;;;;;4591897;19;20010;-81
2023/12/19 02:58:12;;;;;;;12.00;10.10;;;15.10;99.90;;;;;;4592098;19;20315;-80
2023/12/19 02:59:47;;;;;;;12.88;9.73;;;15.10;99.90;;;;;;4591980;19;20058;-80
2023/12/19 03:01:21;;;;;;;14.48;10.07;;;15.10;99.90;;;;;;4590601;19;20013;-80
2023/12/19 03:02:58;;;;;;;14.30;11.63;;;15.10;99.90;;;;;;4591688;19;20006;-80
2023/12/19 03:04:33;;;;;;;15.90;11.25;;;15.10;99.90;;;;;;4591912;19;20022;-80
2023/12/19 03:06:07;;;;;;;14.32;10.32;;;15.10;99.90;;;;;;4591849;19;19998;-80
2023/12/19 03:07:43;;;;;;;19.98;13.25;;;15.10;99.90;;;;;;4591940;19;20354;-80
2023/12/19 03:09:17;;;;;;;13.93;11.50;;;15.10;99.90;;;;;;4591828;19;20007;-81
2023/12/19 03:10:52;;;;;;;14.63;11.70;;;15.10;99.90;;;;;;4592038;19;20365;-81
2023/12/19 03:12:28;;;;;;;16.70;11.48;;;15.10;99.90;;;;;;4590497;19;20038;-81
2023/12/19 03:14:02;;;;;;;18.00;11.90;;;15.00;99.90;;;;;;4591663;19;20006;-80
2023/12/19 03:15:36;;;;;;;16.48;12.55;;;15.10;99.90;;;;;;4594424;19;20009;-80
2023/12/19 03:17:12;;;;;;;14.93;11.60;;;15.00;99.90;;;;;;4596707;19;20024;-80
2023/12/19 03:18:46;;;;;;;16.65;12.00;;;15.00;99.90;;;;;;4596404;19;19999;-80
2023/12/19 03:20:20;;;;;;;14.48;11.85;;;15.10;99.90;;;;;;4596354;19;20437;-80
2023/12/19 03:21:56;;;;;;;14.35;11.10;;;15.00;99.90;;;;;;4595429;19;19999;-80
2023/12/19 03:23:32;;;;;;;15.75;11.02;;;15.00;99.90;;;;;;4594911;19;20002;-80
2023/12/19 03:25:06;;;;;;;13.70;11.70;;;15.00;99.90;;;;;;4596256;19;20365;-80
2023/12/19 03:26:41;;;;;;;16.75;12.02;;;15.00;99.90;;;;;;4596275;19;20020;-80
2023/12/19 03:28:15;;;;;;;16.02;12.35;;;15.00;99.90;;;;;;4596473;19;20006;-80
2023/12/19 03:29:50;;;;;;;16.42;11.98;;;15.00;99.90;;;;;;4595092;19;20025;-80
2023/12/19 03:31:26;;;;;;;16.88;12.57;;;15.00;99.90;;;;;;4594454;19;20006;-80
2023/12/19 03:33:00;;;;;;;16.15;12.18;;;15.00;99.90;;;;;;4595656;19;20007;-80
2023/12/19 03:34:34;;;;;;;17.17;12.35;;;15.00;99.90;;;;;;4595587;19;20005;-80
2023/12/19 03:36:10;;;;;;;17.60;12.60;;;15.00;99.90;;;;;;4596366;19;20015;-80
2023/12/19 03:37:44;;;;;;;14.07;11.48;;;15.00;99.90;;;;;;4596010;19;19999;-80
2023/12/19 03:39:19;;;;;;;16.10;11.32;;;15.00;99.90;;;;;;4595982;19;19998;-80
2023/12/19 03:40:57;;;;;;;18.25;13.13;;;15.00;99.90;;;;;;4596297;19;20287;-80
2023/12/19 03:42:31;;;;;;;14.38;10.82;;;15.00;99.90;;;;;;4594303;19;20419;-80
2023/12/19 03:44:05;;;;;;;13.77;11.52;;;15.00;99.90;;;;;;4595870;19;20027;-80
2023/12/19 03:45:40;;;;;;;15.52;12.15;;;15.00;99.90;;;;;;4595912;19;20102;-80
2023/12/19 03:47:14;;;;;;;14.05;11.77;;;15.00;99.90;;;;;;4594459;19;20002;-81
2023/12/19 03:48:50;;;;;;;13.82;11.15;;;15.00;99.90;;;;;;4595431;19;20426;-80
2023/12/19 03:50:26;;;;;;;14.60;11.43;;;15.00;99.90;;;;;;4596040;19;20006;-80
2023/12/19 03:52:00;;;;;;;13.50;11.88;;;15.00;99.90;;;;;;4594905;19;20006;-80
2023/12/19 03:53:37;;;;;;;13.10;9.75;;;15.00;99.90;;;;;;4595783;19;20091;-80
2023/12/19 03:55:12;;;;;;;13.63;11.02;;;15.00;99.90;;;;;;4594480;19;20018;-80
2023/12/19 03:56:46;;;;;;;17.35;11.68;;;14.90;99.90;;;;;;4594525;19;20014;-80
2023/12/19 03:58:21;;;;;;;15.32;12.15;;;14.90;99.90;;;;;;4594241;19;20002;-81
2023/12/19 03:59:57;;;;;;;20.20;13.70;;;14.90;99.90;;;;;;4595331;19;20075;-81
2023/12/19 04:01:33;;;;;;;19.17;13.50;;;14.90;99.90;;;;;;4594999;19;20014;-81
2023/12/19 04:03:09;;;;;;;14.63;11.35;;;14.90;99.90;;;;;;4595489;19;20002;-81
2023/12/19 04:04:44;;;;;;;14.25;11.25;;;14.90;99.90;;;;;;4595409;19;20010;-80
2023/12/19 04:06:20;;;;;;;14.07;11.02;;;14.90;99.90;;;;;;4594148;19;19998;-81
2023/12/19 04:07:56;;;;;;;13.85;11.32;;;15.00;99.90;;;;;;4595272;19;20320;-80
2023/12/19 04:09:31;;;;;;;14.75;11.65;;;14.90;99.90;;;;;;4595702;19;20007;-81
2023/12/19 04:11:06;;;;;;;17.00;12.50;;;14.90;99.90;;;;;;4595600;19;19999;-80
2023/12/19 04:12:41;;;;;;;14.05;11.18;;;14.90;99.90;;;;;;4593376;19;20046;-80
2023/12/19 04:14:17;;;;;;;12.60;9.63;;;14.90;99.90;;;;;;4595210;19;20007;-80
2023/12/19 04:15:51;;;;;;;14.73;11.10;;;14.90;99.90;;;;;;4595201;19;20002;-80
2023/12/19 04:17:24;;;;;;;13.50;10.82;;;14.90;99.90;;;;;;4595167;19;19998;-80
2023/12/19 04:19:02;;;;;;;14.63;11.40;;;14.90;99.90;;;;;;4593764;19;20010;-80
2023/12/19 04:20:36;;;;;;;12.85;10.38;;;14.90;99.90;;;;;;4594787;19;20434;-80
2023/12/19 04:22:10;;;;;;;17.25;11.90;;;14.90;99.90;;;;;;4592655;19;20133;-81
2023/12/19 04:23:46;;;;;;;16.02;11.88;;;14.90;99.90;;;;;;4595215;19;19998;-81
2023/12/19 04:25:20;;;;;;;16.88;12.00;;;14.90;99.90;;;;;;4595051;19;20003;-81
2023/12/19 04:26:55;;;;;;;14.00;11.55;;;14.90;99.90;;;;;;4593548;19;20430;-80
2023/12/19 04:28:30;;;;;;;14.40;11.07;;;14.90;99.90;;;;;;4595044;19;20006;-80
2023/12/19 04:30:07;;;;;;;14.85;12.32;;;14.90;99.90;;;;;;4594910;19;20003;-80
2023/12/19 04:31:41;;;;;;;15.70;11.25;;;14.90;99.90;;;;;;4594569;19;20002;-80
2023/12/19 04:33:18;;;;;;;13.88;10.80;;;14.90;99.90;;;;;;4594872;19;20006;-79
2023/12/19 04:34:53;;;;;;;13.10;10.23;;;14.90;99.90;;;;;;4594183;19;20318;-80
2023/12/19 04:36:28;;;;;;;13.05;11.00;;;14.90;99.90;;;;;;4594764;19;20006;-80
2023/12/19 04:38:03;;;;;;;13.23;10.07;;;14.90;99.90;;;;;;4594881;19;20426;-77
2023/12/19 04:39:38;;;;;;;14.07;10.25;;;14.90;99.90;;;;;;4594648;19;20058;-78
2023/12/19 04:41:13;;;;;;;12.75;10.15;;;14.90;99.90;;;;;;4594574;19;20032;-80
2023/12/19 04:42:49;;;;;;;13.35;10.45;;;14.90;99.90;;;;;;4595201;19;20010;-80
2023/12/19 04:44:23;;;;;;;13.48;10.25;;;15.00;99.90;;;;;;4594680;19;20003;-80
2023/12/19 04:46:00;;;;;;;14.30;11.27;;;15.00;99.90;;;;;;4594612;19;20466;-80
2023/12/19 04:47:36;;;;;;;14.55;11.25;;;15.10;99.90;;;;;;4593313;19;20030;-80
2023/12/19 04:49:10;;;;;;;15.88;10.48;;;15.20;99.90;;;;;;4594506;19;20009;-80
2023/12/19 04:50:45;;;;;;;13.55;10.80;;;15.30;99.90;;;;;;4594782;19;20020;-80
2023/12/19 04:52:21;;;;;;;14.85;11.43;;;15.40;99.90;;;;;;4593309;19;20074;-80
2023/12/19 04:53:56;;;;;;;13.68;11.10;;;15.50;99.90;;;;;;4594412;19;20026;-79
2023/12/19 04:55:30;;;;;;;12.35;10.00;;;15.70;99.90;;;;;;4593705;19;20010;-79
2023/12/19 04:57:06;;;;;;;12.73;9.95;;;15.80;99.90;;;;;;4594457;19;20022;-79
2023/12/19 04:58:46;;;;;;;13.48;10.23;;;16.00;99.90;;;;;;4594331;19;20003;-79
2023/12/19 05:00:20;;;;;;;14.68;10.70;;;16.10;99.90;;;;;;4594420;19;20003;-79
2023/12/19 05:01:55;;;;;;;12.82;10.32;;;16.20;99.90;;;;;;4592219;19;20007;-79
2023/12/19 05:03:29;;;;;;;13.15;9.63;;;16.30;99.90;;;;;;4593838;19;20013;-79
2023/12/19 05:05:04;;;;;;;13.25;9.32;;;16.30;99.90;;;;;;4594192;19;20002;-79
2023/12/19 05:06:39;;;;;;;13.35;9.70;;;16.30;99.90;;;;;;4592959;19;20112;-81
2023/12/19 05:08:15;;;;;;;13.10;10.20;;;16.40;99.90;;;;;;4593814;19;20033;-79
2023/12/19 05:09:49;;;;;;;11.93;10.48;;;16.40;99.90;;;;;;4592880;19;20329;-80
2023/12/19 05:11:25;;;;;;;11.48;9.52;;;16.40;99.90;;;;;;4593760;19;20308;-79
2023/12/19 05:12:59;;;;;;;13.55;10.65;;;16.40;99.90;;;;;;4592531;19;20343;-80
2023/12/19 05:14:35;;;;;;;13.75;11.38;;;16.40;99.90;;;;;;4593624;19;20015;-83
2023/12/19 05:16:19;;;;;;;13.13;10.38;;;16.40;99.90;;;;;;4594068;19;20006;-78
2023/12/19 05:17:54;;;;;;;12.02;9.95;;;16.40;99.90;;;;;;4593864;19;20318;-79
2023/12/19 05:19:29;;;;;;;12.55;9.88;;;16.30;99.90;;;;;;4593771;19;20030;-80
2023/12/19 05:21:05;;;;;;;13.57;9.48;;;16.40;99.90;;;;;;4593950;19;20007;-80
2023/12/19 05:22:39;;;;;;;11.68;9.85;;;16.40;99.90;;;;;;4591076;19;20487;-79
2023/12/19 05:24:15;;;;;;;10.32;9.00;;;16.30;99.90;;;;;;4593475;19;20023;-79
2023/12/19 05:25:50;;;;;;;11.40;9.00;;;16.30;99.90;;;;;;4593810;19;20006;-80
2023/12/19 05:27:24;;;;;;;14.18;9.48;;;16.30;99.90;;;;;;4592688;19;20040;-79
2023/12/19 05:28:58;;;;;;;10.88;8.68;;;16.20;99.90;;;;;;4593366;19;20002;-79
2023/12/19 05:30:34;;;;;;;9.68;8.25;;;16.20;99.90;;;;;;4593716;19;20007;-79
2023/12/19 05:32:10;;;;;;;10.50;8.95;;;16.20;99.90;;;;;;4592758;19;20006;-79
2023/12/19 05:33:44;;;;;;;10.40;8.23;;;16.10;99.90;;;;;;4593579;19;20011;-79
2023/12/19 05:35:20;;;;;;;11.93;8.50;;;16.10;99.90;;;;;;4592793;19;20430;-79
2023/12/19 05:36:54;;;;;;;11.52;9.25;;;16.00;99.90;;;;;;4593542;19;19999;-79
2023/12/19 05:38:28;;;;;;;13.43;10.40;;;16.00;99.90;;;;;;4591004;19;20009;-80
2023/12/19 05:40:04;;;;;;;11.55;10.15;;;16.00;99.90;;;;;;4593758;19;20003;-80
2023/12/19 05:41:38;;;;;;;13.02;9.68;;;16.00;99.90;;;;;;4592887;19;20021;-80
2023/12/19 05:43:14;;;;;;;12.80;9.68;;;15.90;99.90;;;;;;4593685;19;20006;-80
2023/12/19 05:44:49;;;;;;;11.10;9.45;;;15.90;99.90;;;;;;4593793;19;20351;-80
2023/12/19 05:46:24;;;;;;;10.57;9.48;;;15.90;99.90;;;;;;4593596;19;20301;-80
2023/12/19 05:47:58;;;;;;;12.85;9.10;;;15.90;99.90;;;;;;4593305;19;20002;-80
2023/12/19 05:49:33;;;;;;;13.38;9.45;;;15.80;99.90;;;;;;4593365;19;20010;-79
2023/12/19 05:51:07;;;;;;;11.32;9.15;;;15.80;99.90;;;;;;4593542;19;20449;-80
2023/12/19 05:52:41;;;;;;;11.07;9.15;;;15.80;99.90;;;;;;4593220;19;20078;-80
2023/12/19 05:54:17;;;;;;;11.13;9.35;;;15.80;99.90;;;;;;4593499;19;20422;-80
2023/12/19 05:55:51;;;;;;;10.77;9.63;;;15.70;99.90;;;;;;4591869;19;20006;-80
2023/12/19 05:57:25;;;;;;;12.82;9.95;;;15.70;99.90;;;;;;4593096;19;20002;-80
2023/12/19 05:59:01;;;;;;;10.93;9.77;;;15.70;99.90;;;;;;4593090;19;20014;-79
2023/12/19 06:00:36;;;;;;;10.85;9.30;;;15.70;99.90;;;;;;4592902;19;20006;-80
2023/12/19 06:02:10;;;;;;;11.23;8.80;;;15.70;99.90;;;;;;4592336;19;20002;-79
2023/12/19 06:03:45;;;;;;;13.25;10.23;;;15.60;99.90;;;;;;4593036;19;20019;-80
2023/12/19 06:05:20;;;;;;;14.15;11.05;;;15.60;99.90;;;;;;4592845;19;20014;-79
2023/12/19 06:06:54;;;;;;;13.00;10.75;;;15.60;99.90;;;;;;4592817;19;20430;-79
2023/12/19 06:08:30;;;;;;;12.10;10.38;;;15.60;99.90;;;;;;4593125;19;20017;-79
2023/12/19 06:10:13;;;;;;;12.48;9.98;;;15.60;99.90;;;;;;4593092;19;20430;-79
2023/12/19 06:11:48;;;;;;;12.20;10.45;;;15.60;99.90;;;;;;4590571;19;20006;-78
2023/12/19 06:13:24;;;;;;;12.57;9.85;;;15.60;99.90;;;;;;4592488;19;20007;-79
2023/12/19 06:14:59;;;;;;;11.82;9.13;;;15.60;99.90;;;;;;4592410;19;20053;-79
2023/12/19 06:16:33;;;;;;;11.57;9.70;;;15.60;99.90;;;;;;4592652;19;20002;-79
2023/12/19 06:18:10;;;;;;;11.38;9.20;;;15.60;99.90;;;;;;4592690;19;20002;-79
2023/12/19 06:19:46;;;;;;;12.85;9.63;;;15.70;99.90;;;;;;4592610;19;20065;-79
2023/12/19 06:21:20;;;;;;;12.18;10.00;;;15.80;99.90;;;;;;4592328;19;20019;-79
2023/12/19 06:22:56;;;;;;;12.52;9.63;;;15.80;99.90;;;;;;4593020;19;20006;-79
2023/12/19 06:24:30;;;;;;;12.05;9.60;;;15.90;99.90;;;;;;4592465;19;19998;-79
2023/12/19 06:26:06;;;;;;;11.85;9.27;;;16.00;99.90;;;;;;4592730;19;20015;-79
2023/12/19 06:27:43;;;;;;;11.10;9.27;;;16.10;99.90;;;;;;4591156;19;20013;-79
2023/12/19 06:29:17;;;;;;;11.52;9.18;;;16.20;99.90;;;;;;4592224;19;19999;-79
2023/12/19 06:30:53;;;;;;;12.63;9.93;;;16.30;99.90;;;;;;4592697;19;20056;-79
2023/12/19 06:32:29;;;;;;;11.30;9.13;;;16.30;99.90;;;;;;4591423;19;20016;-79
2023/12/19 06:34:04;;;;;;;12.43;9.82;;;16.40;99.90;;;;;;4591006;19;20525;-79
2023/12/19 06:35:43;;;;;;;10.68;9.55;;;16.40;99.90;;;;;;4591305;19;19998;-78
2023/12/19 06:37:18;;;;;;;12.75;9.88;;;16.50;99.90;;;;;;4591249;19;20006;-79
2023/12/19 06:38:53;;;;;;;11.40;9.60;;;16.50;99.90;;;;;;4592219;19;19999;-79
2023/12/19 06:40:27;;;;;;;13.30;9.63;;;16.60;99.90;;;;;;4592157;19;20332;-79
2023/12/19 06:42:02;;;;;;;11.30;9.30;;;16.60;99.90;;;;;;4591509;19;20010;-79
2023/12/19 06:43:37;;;;;;;11.30;9.80;;;16.60;99.90;;;;;;4592381;19;20007;-79
2023/12/19 06:45:12;;;;;;;11.13;9.68;;;16.70;99.90;;;;;;4592079;19;20008;-79
2023/12/19 06:46:49;;;;;;;12.25;9.48;;;16.70;99.90;;;;;;4592155;19;20010;-79
2023/12/19 06:48:25;;;;;;;11.65;9.52;;;16.70;99.90;;;;;;4592171;19;20038;-79
2023/12/19 06:50:00;;;;;;;11.15;9.02;;;16.70;99.90;;;;;;4591128;19;20006;-79
2023/12/19 06:51:35;;;;;;;12.45;10.38;;;16.70;99.90;;;;;;4591789;19;20342;-79
2023/12/19 06:53:09;;;;;;;11.00;9.50;;;16.70;99.90;;;;;;4591901;19;20470;-79
2023/12/19 06:54:44;;;;;;;11.57;10.15;;;16.70;99.90;;;;;;4591719;19;20327;-79
2023/12/19 06:56:19;;;;;;;13.55;11.10;;;16.60;99.90;;;;;;4590954;19;20010;-79
2023/12/19 06:57:55;;;;;;;11.52;9.70;;;16.60;99.90;;;;;;4591619;19;20026;-79
2023/12/19 06:59:32;;;;;;;13.43;11.27;;;16.50;99.90;;;;;;4591986;19;20430;-79
2023/12/19 07:01:07;;;;;;;12.07;9.88;;;16.50;99.90;;;;;;4592184;19;20006;-79
2023/12/19 07:02:41;;;;;;;11.90;9.85;;;16.50;99.90;;;;;;4590760;19;20007;-80
2023/12/19 07:04:18;;;;;;;12.55;10.55;;;16.40;99.90;;;;;;4591476;19;20023;-79
2023/12/19 07:05:53;;;;;;;12.65;10.13;;;16.40;99.90;;;;;;4591847;19;20292;-79
2023/12/19 07:07:27;;;;;;;11.35;9.85;;;16.40;99.90;;;;;;4591744;19;19998;-79
2023/12/19 07:09:01;;;;;;;12.85;9.80;;;16.30;99.90;;;;;;4591976;19;20005;-79
2023/12/19 07:10:36;;;;;;;13.23;10.45;;;16.30;99.90;;;;;;4590876;19;20006;-79
2023/12/19 07:12:10;;;;;;;11.25;9.40;;;16.30;99.90;;;;;;4590150;19;20018;-79
2023/12/19 07:13:44;;;;;;;12.70;10.20;;;16.20;99.90;;;;;;4591953;19;20002;-80
2023/12/19 07:15:19;;;;;;;12.35;10.50;;;16.20;99.90;;;;;;4591214;19;20454;-79
2023/12/19 07:16:53;;;;;;;13.18;10.70;;;16.20;99.90;;;;;;4591878;19;20006;-78
2023/12/19 07:18:27;;;;;;;13.50;10.18;;;16.10;99.90;;;;;;4591519;19;20006;-79
2023/12/19 07:20:04;;;;;;;10.30;7.32;;;16.20;99.90;;;;;;4591924;19;20073;-78
2023/12/19 07:21:38;;;;;;;8.30;5.28;;;16.50;99.90;;;;;;4589961;19;20014;-76
2023/12/19 07:23:13;;;;;;;8.20;4.03;;;16.90;99.90;;;;;;4591152;19;20010;-77
2023/12/19 07:24:49;;;;;;;6.65;4.85;;;17.20;99.90;;;;;;4591865;19;20283;-76
2023/12/19 07:26:32;;;;;;;7.13;4.20;;;17.50;99.90;;;;;;4591451;19;19999;-77
2023/12/19 07:28:07;;;;;;;6.50;3.60;;;17.70;99.90;;;;;;4591687;19;20003;-78
2023/12/19 07:29:43;;;;;;;7.40;3.67;;;17.90;99.90;;;;;;4591490;19;20320;-80
2023/12/19 07:31:27;;;;;;;8.07;3.25;;;18.00;99.90;;;;;;4591157;19;20002;-75
2023/12/19 07:33:02;;;;;;;6.50;3.53;;;18.20;99.90;;;;;;4590025;19;20020;-78
2023/12/19 07:34:38;;;;;;;18.92;3.75;;;18.30;99.90;;;;;;4590881;19;20010;-78
2023/12/19 07:36:12;;;;;;;7.70;3.95;;;18.40;99.90;;;;;;4591371;19;20003;-76
2023/12/19 07:37:48;;;;;;;7.57;4.07;;;18.50;99.90;;;;;;4591221;19;20019;-79
2023/12/19 07:39:24;;;;;;;8.23;3.10;;;18.50;99.90;;;;;;4591246;19;20402;-79
2023/12/19 07:40:59;;;;;;;5.18;3.00;;;18.60;99.90;;;;;;4591015;19;20009;-79
2023/12/19 07:42:33;;;;;;;6.70;3.47;;;18.70;99.90;;;;;;4589844;19;20003;-79
2023/12/19 07:44:14;;;;;;;7.80;3.58;;;18.60;99.90;;;;;;4591070;19;20087;-78
2023/12/19 07:45:50;;;;;;;6.72;3.67;;;18.70;99.90;;;;;;4590021;19;20437;-79
2023/12/19 07:47:27;;;;;;;8.02;3.08;;;18.70;99.90;;;;;;4590666;19;20488;-78
2023/12/19 07:49:02;;;;;;;7.38;3.38;;;18.70;99.90;;;;;;4591321;19;20013;-79
2023/12/19 07:50:37;;;;;;;8.02;4.15;;;18.70;99.90;;;;;;4590894;19;20319;-79
2023/12/19 07:52:11;;;;;;;6.05;3.15;;;18.70;99.90;;;;;;4589913;19;20426;-79
2023/12/19 07:53:46;;;;;;;7.15;3.42;;;18.80;99.90;;;;;;4590890;19;20006;-76
2023/12/19 07:55:21;;;;;;;7.00;3.60;;;18.70;99.90;;;;;;4589971;19;20010;-77
2023/12/19 07:56:55;;;;;;;6.05;3.25;;;18.70;99.90;;;;;;4591153;19;20454;-75
2023/12/19 07:58:31;;;;;;;7.07;3.90;;;18.70;99.90;;;;;;4590928;19;19998;-73
2023/12/19 08:00:08;;;;;;;6.80;3.08;;;18.70;99.90;;;;;;4589376;19;20006;-73
2023/12/19 08:01:48;;;;;;;6.53;3.17;;;18.70;99.90;;;;;;4591474;19;20002;-74
2023/12/19 08:03:26;;;;;;;;;;;18.70;99.90;;;;;;4595245;19;20006;-75
2023/12/19 08:05:01;;;;;;;6.22;3.15;;;18.70;99.90;;;;;;4593921;19;20204;-74
2023/12/19 08:06:36;;;;;;;8.60;3.70;;;18.70;99.90;;;;;;4593801;19;20041;-79
2023/12/19 08:08:11;;;;;;;5.55;3.17;;;18.70;99.90;;;;;;4595451;19;20007;-78
2023/12/19 08:09:45;;;;;;;6.32;3.78;;;18.60;99.90;;;;;;4595250;19;20021;-78
2023/12/19 08:11:19;;;;;;;5.43;3.25;;;18.70;99.90;;;;;;4595188;19;20474;-78
2023/12/19 08:12:56;;;;;;;7.15;3.45;;;18.70;99.90;;;;;;4592264;19;20312;-78
2023/12/19 08:14:30;;;;;;;6.90;3.83;;;18.60;99.90;;;;;;4593742;19;19999;-73
2023/12/19 08:16:05;;;;;;;6.20;3.15;;;18.60;99.90;;;;;;4594545;19;20505;-77
2023/12/19 08:17:40;;;;;;;6.28;3.10;;;18.60;99.90;;;;;;4593880;19;20346;-78
2023/12/19 08:19:16;;;;;;;6.15;3.25;;;18.60;99.90;;;;;;4594551;19;20400;-79